Fortunia — V2OG3 — position and weather

sailwx.info

Track history (hours):
 
Tides and Currents Weather Stations Pressure Air Temp Water Temp Dewpoint Dewpoint Depression Visibility Wind Speed Wind Dir Waves Ship Positions

Fortunia

Last reported at 2015-Jul-29 07:11 UTC. Time now 2015-Aug-03 17:16 UTC.
Position N 36°46' E 003°04'.

Length 121 m; draft 5.6 m.

Type: Ship. MMSI: 304010638.

Date/timePositionNaut miles runAvg speedWind from/ knotsBaromVisibWave heightAir tempDewpointWater temp
2015-Jul-29 07:11N 36°46' E 003°04'1 0.0
2015-Jul-27 04:32N 36°46' E 003°06'3 2.6
2015-Jul-27 03:33N 36°48' E 003°06'1010.2
2015-Jul-27 02:34N 36°58' E 003°11'1110.7
2015-Jul-27 01:32N 37°08' E 003°15'1110.9
2015-Jul-27 00:33N 37°19' E 003°19'1111.0
2015-Jul-26 23:33N 37°29' E 003°23'1111.0
2015-Jul-26 22:32N 37°40' E 003°28'30111.1
2015-Jul-25 19:27N 42°34' E 004°55'910.0
2015-Jul-25 18:33N 42°43' E 004°56'10 9.8
2015-Jul-25 17:33N 42°52' E 004°57'1010.4
2015-Jul-25 16:33N 43°03' E 004°59'1110.6
2015-Jul-25 15:33N 43°13' E 004°60'1110.6
2015-Jul-25 14:33N 43°23' E 004°55'4 4.1
2015-Jul-25 13:34N 43°25' E 004°50'0 0.0
2015-Jul-25 12:34N 43°25' E 004°50'0 0.0
2015-Jul-25 11:34N 43°25' E 004°50'0 0.0
2015-Jul-25 10:34N 43°25' E 004°50'0 0.0
2015-Jul-25 09:34N 43°25' E 004°50'0 0.0
2015-Jul-25 08:33N 43°25' E 004°50'0 0.0
2015-Jul-25 07:34N 43°25' E 004°50'0 0.0
2015-Jul-25 06:34N 43°25' E 004°50'0 0.0
2015-Jul-25 05:34N 43°25' E 004°50'0 0.0
2015-Jul-25 04:33N 43°25' E 004°50'0 0.0
2015-Jul-25 03:33N 43°25' E 004°50'5 5.2
2015-Jul-25 02:34N 43°23' E 004°57'8 8.3
2015-Jul-25 01:33N 43°15' E 005°01'8 8.1
2015-Jul-25 00:33N 43°10' E 005°09'34 8.4
2015-Jul-24 20:30N 42°56' E 005°51'8 8.3
2015-Jul-24 19:34N 42°56' E 006°02'8 8.5
2015-Jul-24 18:33N 42°56' E 006°13'9 8.7
2015-Jul-24 17:33N 42°56' E 006°25'9 8.9
2015-Jul-24 16:33N 42°59' E 006°37'9 9.0
2015-Jul-24 15:33N 43°02' E 006°48'11 9.2
2015-Jul-24 14:20N 43°06' E 007°03'7 8.6
2015-Jul-24 13:32N 43°08' E 007°12'9 9.3
2015-Jul-24 12:34N 43°11' E 007°24'10 9.1
2015-Jul-24 11:26N 43°14' E 007°37'10 8.9
2015-Jul-24 10:21N 43°17' E 007°49'7 8.7
2015-Jul-24 09:32N 43°20' E 007°59'8 8.5
2015-Jul-24 08:33N 43°23' E 008°09'8 8.2
2015-Jul-24 07:33N 43°27' E 008°19'8 8.2
2015-Jul-24 06:34N 43°31' E 008°29'9 8.7
2015-Jul-24 05:33N 43°34' E 008°40'9 8.8
2015-Jul-24 04:33N 43°39' E 008°51'9 9.0
2015-Jul-24 03:33N 43°43' E 009°02'9 8.9
2015-Jul-24 02:33N 43°47' E 009°13'9 8.8
2015-Jul-24 01:33N 43°51' E 009°24'9 8.8
2015-Jul-24 00:34N 43°54' E 009°35'9 8.8
2015-Jul-23 23:33N 43°58' E 009°46'7 7.3
2015-Jul-23 22:33N 44°04' E 009°51'2 1.8
2015-Jul-23 21:32N 44°06' E 009°50'0 0.0
2015-Jul-23 20:31N 44°06' E 009°50'0 0.0
2015-Jul-23 19:31N 44°06' E 009°50'0 0.0
2015-Jul-23 18:33N 44°06' E 009°50'0 0.1
2015-Jul-23 17:33N 44°06' E 009°50'3 2.7
2015-Jul-23 16:33N 44°04' E 009°52'5 4.9
2015-Jul-23 15:34N 43°60' E 009°55'1111.3
2015-Jul-23 14:34N 43°53' E 009°43'1212.0
2015-Jul-23 13:33N 43°47' E 009°28'1211.9
2015-Jul-23 12:33N 43°41' E 009°14'1211.6
2015-Jul-23 11:33N 43°35' E 009°00'1211.6
2015-Jul-23 10:33N 43°28' E 008°47'1211.9
2015-Jul-23 09:33N 43°22' E 008°34'2411.9
2015-Jul-23 07:33N 43°08' E 008°07'1212.2
2015-Jul-23 06:33N 43°00' E 007°54'1212.3
2015-Jul-23 05:33N 42°52' E 007°41'1212.4
2015-Jul-23 04:34N 42°44' E 007°28'1212.3
2015-Jul-23 03:33N 42°36' E 007°15'1512.2
2015-Jul-23 02:21N 42°27' E 006°60'3912.3
2015-Jul-22 23:09N 42°03' E 006°17'712.0
2015-Jul-22 22:33N 41°59' E 006°10'1512.1
2015-Jul-22 21:17N 41°50' E 005°54'912.1
2015-Jul-22 20:34N 41°44' E 005°44'1211.8
2015-Jul-22 19:32N 41°38' E 005°31'1211.8
2015-Jul-22 18:33N 41°33' E 005°17'1212.0
2015-Jul-22 17:33N 41°27' E 005°03'8912.0
2015-Jul-22 10:07N 40°37' E 003°25'611.1
2015-Jul-22 09:33N 40°34' E 003°17'1111.2
2015-Jul-22 08:33N 40°29' E 003°04'1211.4
2015-Jul-22 07:33N 40°21' E 002°53'1211.8
2015-Jul-22 06:33N 40°15' E 002°40'1211.8
2015-Jul-22 05:34N 40°11' E 002°25'1211.6
2015-Jul-22 04:33N 40°08' E 002°11'1111.3
2015-Jul-22 03:33N 40°05' E 001°57'1212.0
2015-Jul-22 02:33N 40°02' E 001°42'1212.2
2015-Jul-22 01:33N 39°58' E 001°26'1211.9
2015-Jul-22 00:33N 39°54' E 001°12'1211.5
2015-Jul-21 23:33N 39°49' E 000°58'1211.6
2015-Jul-21 22:32N 39°45' E 000°44'4611.1
2015-Jul-21 18:23N 39°27' W 000°11'6 7.2
2015-Jul-21 17:32N 39°26' W 000°19'0 0.0
2015-Jul-21 16:31N 39°26' W 000°19'0 0.0
2015-Jul-21 15:31N 39°26' W 000°19'0 0.0
2015-Jul-21 14:33N 39°26' W 000°19'0 0.0
2015-Jul-21 13:33N 39°26' W 000°19'2 2.2
2015-Jul-21 12:32N 39°24' W 000°17'0 0.0
2015-Jul-21 08:23N 39°24' W 000°17'0 0.0
2015-Jul-20 16:11N 39°24' W 000°17'8 7.9
2015-Jul-20 15:09N 39°19' W 000°09'711.3
2015-Jul-20 14:31N 39°14' W 000°03'1111.4
2015-Jul-20 13:33N 39°06' E 000°07'1211.4
2015-Jul-20 12:29N 38°58' E 000°19'1111.3
2015-Jul-20 11:33N 38°51' E 000°29'1111.4
2015-Jul-20 10:33N 38°43' E 000°40'1110.7
2015-Jul-20 09:32N 38°36' E 000°50'1111.2
2015-Jul-20 08:33N 38°27' E 000°59'1211.6
2015-Jul-20 07:33N 38°19' E 001°10'1211.6
2015-Jul-20 06:33N 38°11' E 001°20'1311.6
2015-Jul-20 05:27N 38°02' E 001°32'1011.4
2015-Jul-20 04:33N 37°55' E 001°41'1111.1
2015-Jul-20 03:33N 37°47' E 001°51'1111.0
2015-Jul-20 02:33N 37°40' E 002°01'1111.3
2015-Jul-20 01:34N 37°32' E 002°12'1111.0
2015-Jul-20 00:33N 37°24' E 002°21'1111.0
2015-Jul-19 23:33N 37°16' E 002°32'1111.0
2015-Jul-19 22:33N 37°09' E 002°42'1111.1
2015-Jul-19 21:33N 37°01' E 002°52'1111.1
2015-Jul-19 20:33N 36°53' E 003°01'8 1.4
2015-Jul-19 15:09N 36°46' E 003°04'0 0.0
2015-Jul-19 14:24N 36°46' E 003°04'0 0.0
2015-Jul-19 13:17N 36°46' E 003°04'0 0.0
2015-Jul-19 12:29N 36°46' E 003°04'0 0.0
2015-Jul-19 11:29N 36°46' E 003°04'0 0.0
2015-Jul-19 10:28N 36°46' E 003°04'0 0.0
2015-Jul-19 09:19N 36°46' E 003°04'0 0.0
2015-Jul-19 08:18N 36°46' E 003°04'0 0.0
2015-Jul-19 07:33N 36°46' E 003°04'  
Track history (hours):
 
Tides and Currents Weather Stations Pressure Air Temp Water Temp Dewpoint Dewpoint Depression Visibility Wind Speed Wind Dir Waves Ship Positions

Fortunia

Last reported at 2015-Jul-29 07:11 UTC. Time now 2015-Aug-03 17:16 UTC.
Position N 36°46' E 003°04'.

Length 121 m; draft 5.6 m.

Type: Ship. MMSI: 304010638.

Date/timePositionNaut miles runAvg speedWind from/ knotsBaromVisibWave heightAir tempDewpointWater temp
2015-Jul-29 07:11N 36°46' E 003°04'1 0.0
2015-Jul-27 04:32N 36°46' E 003°06'3 2.6
2015-Jul-27 03:33N 36°48' E 003°06'1010.2
2015-Jul-27 02:34N 36°58' E 003°11'1110.7
2015-Jul-27 01:32N 37°08' E 003°15'1110.9
2015-Jul-27 00:33N 37°19' E 003°19'1111.0
2015-Jul-26 23:33N 37°29' E 003°23'1111.0
2015-Jul-26 22:32N 37°40' E 003°28'30111.1
2015-Jul-25 19:27N 42°34' E 004°55'910.0
2015-Jul-25 18:33N 42°43' E 004°56'10 9.8
2015-Jul-25 17:33N 42°52' E 004°57'1010.4
2015-Jul-25 16:33N 43°03' E 004°59'1110.6
2015-Jul-25 15:33N 43°13' E 004°60'1110.6
2015-Jul-25 14:33N 43°23' E 004°55'4 4.1
2015-Jul-25 13:34N 43°25' E 004°50'0 0.0
2015-Jul-25 12:34N 43°25' E 004°50'0 0.0
2015-Jul-25 11:34N 43°25' E 004°50'0 0.0
2015-Jul-25 10:34N 43°25' E 004°50'0 0.0
2015-Jul-25 09:34N 43°25' E 004°50'0 0.0
2015-Jul-25 08:33N 43°25' E 004°50'0 0.0
2015-Jul-25 07:34N 43°25' E 004°50'0 0.0
2015-Jul-25 06:34N 43°25' E 004°50'0 0.0
2015-Jul-25 05:34N 43°25' E 004°50'0 0.0
2015-Jul-25 04:33N 43°25' E 004°50'0 0.0
2015-Jul-25 03:33N 43°25' E 004°50'5 5.2
2015-Jul-25 02:34N 43°23' E 004°57'8 8.3
2015-Jul-25 01:33N 43°15' E 005°01'8 8.1
2015-Jul-25 00:33N 43°10' E 005°09'34 8.4
2015-Jul-24 20:30N 42°56' E 005°51'8 8.3
2015-Jul-24 19:34N 42°56' E 006°02'8 8.5
2015-Jul-24 18:33N 42°56' E 006°13'9 8.7
2015-Jul-24 17:33N 42°56' E 006°25'9 8.9
2015-Jul-24 16:33N 42°59' E 006°37'9 9.0
2015-Jul-24 15:33N 43°02' E 006°48'11 9.2
2015-Jul-24 14:20N 43°06' E 007°03'7 8.6
2015-Jul-24 13:32N 43°08' E 007°12'9 9.3
2015-Jul-24 12:34N 43°11' E 007°24'10 9.1
2015-Jul-24 11:26N 43°14' E 007°37'10 8.9
2015-Jul-24 10:21N 43°17' E 007°49'7 8.7
2015-Jul-24 09:32N 43°20' E 007°59'8 8.5
2015-Jul-24 08:33N 43°23' E 008°09'8 8.2
2015-Jul-24 07:33N 43°27' E 008°19'8 8.2
2015-Jul-24 06:34N 43°31' E 008°29'9 8.7
2015-Jul-24 05:33N 43°34' E 008°40'9 8.8
2015-Jul-24 04:33N 43°39' E 008°51'9 9.0
2015-Jul-24 03:33N 43°43' E 009°02'9 8.9
2015-Jul-24 02:33N 43°47' E 009°13'9 8.8
2015-Jul-24 01:33N 43°51' E 009°24'9 8.8
2015-Jul-24 00:34N 43°54' E 009°35'9 8.8
2015-Jul-23 23:33N 43°58' E 009°46'7 7.3
2015-Jul-23 22:33N 44°04' E 009°51'2 1.8
2015-Jul-23 21:32N 44°06' E 009°50'0 0.0
2015-Jul-23 20:31N 44°06' E 009°50'0 0.0
2015-Jul-23 19:31N 44°06' E 009°50'0 0.0
2015-Jul-23 18:33N 44°06' E 009°50'0 0.1
2015-Jul-23 17:33N 44°06' E 009°50'3 2.7
2015-Jul-23 16:33N 44°04' E 009°52'5 4.9
2015-Jul-23 15:34N 43°60' E 009°55'1111.3
2015-Jul-23 14:34N 43°53' E 009°43'1212.0
2015-Jul-23 13:33N 43°47' E 009°28'1211.9
2015-Jul-23 12:33N 43°41' E 009°14'1211.6
2015-Jul-23 11:33N 43°35' E 009°00'1211.6
2015-Jul-23 10:33N 43°28' E 008°47'1211.9
2015-Jul-23 09:33N 43°22' E 008°34'2411.9
2015-Jul-23 07:33N 43°08' E 008°07'1212.2
2015-Jul-23 06:33N 43°00' E 007°54'1212.3
2015-Jul-23 05:33N 42°52' E 007°41'1212.4
2015-Jul-23 04:34N 42°44' E 007°28'1212.3
2015-Jul-23 03:33N 42°36' E 007°15'1512.2
2015-Jul-23 02:21N 42°27' E 006°60'3912.3
2015-Jul-22 23:09N 42°03' E 006°17'712.0
2015-Jul-22 22:33N 41°59' E 006°10'1512.1
2015-Jul-22 21:17N 41°50' E 005°54'912.1
2015-Jul-22 20:34N 41°44' E 005°44'1211.8
2015-Jul-22 19:32N 41°38' E 005°31'1211.8
2015-Jul-22 18:33N 41°33' E 005°17'1212.0
2015-Jul-22 17:33N 41°27' E 005°03'8912.0
2015-Jul-22 10:07N 40°37' E 003°25'611.1
2015-Jul-22 09:33N 40°34' E 003°17'1111.2
2015-Jul-22 08:33N 40°29' E 003°04'1211.4
2015-Jul-22 07:33N 40°21' E 002°53'1211.8
2015-Jul-22 06:33N 40°15' E 002°40'1211.8
2015-Jul-22 05:34N 40°11' E 002°25'1211.6
2015-Jul-22 04:33N 40°08' E 002°11'1111.3
2015-Jul-22 03:33N 40°05' E 001°57'1212.0
2015-Jul-22 02:33N 40°02' E 001°42'1212.2
2015-Jul-22 01:33N 39°58' E 001°26'1211.9
2015-Jul-22 00:33N 39°54' E 001°12'1211.5
2015-Jul-21 23:33N 39°49' E 000°58'1211.6
2015-Jul-21 22:32N 39°45' E 000°44'4611.1
2015-Jul-21 18:23N 39°27' W 000°11'6 7.2
2015-Jul-21 17:32N 39°26' W 000°19'0 0.0
2015-Jul-21 16:31N 39°26' W 000°19'0 0.0
2015-Jul-21 15:31N 39°26' W 000°19'0 0.0
2015-Jul-21 14:33N 39°26' W 000°19'0 0.0
2015-Jul-21 13:33N 39°26' W 000°19'2 2.2
2015-Jul-21 12:32N 39°24' W 000°17'0 0.0
2015-Jul-21 08:23N 39°24' W 000°17'0 0.0
2015-Jul-20 16:11N 39°24' W 000°17'8 7.9
2015-Jul-20 15:09N 39°19' W 000°09'711.3
2015-Jul-20 14:31N 39°14' W 000°03'1111.4
2015-Jul-20 13:33N 39°06' E 000°07'1211.4
2015-Jul-20 12:29N 38°58' E 000°19'1111.3
2015-Jul-20 11:33N 38°51' E 000°29'1111.4
2015-Jul-20 10:33N 38°43' E 000°40'1110.7
2015-Jul-20 09:32N 38°36' E 000°50'1111.2
2015-Jul-20 08:33N 38°27' E 000°59'1211.6
2015-Jul-20 07:33N 38°19' E 001°10'1211.6
2015-Jul-20 06:33N 38°11' E 001°20'1311.6
2015-Jul-20 05:27N 38°02' E 001°32'1011.4
2015-Jul-20 04:33N 37°55' E 001°41'1111.1
2015-Jul-20 03:33N 37°47' E 001°51'1111.0
2015-Jul-20 02:33N 37°40' E 002°01'1111.3
2015-Jul-20 01:34N 37°32' E 002°12'1111.0
2015-Jul-20 00:33N 37°24' E 002°21'1111.0
2015-Jul-19 23:33N 37°16' E 002°32'1111.0
2015-Jul-19 22:33N 37°09' E 002°42'1111.1
2015-Jul-19 21:33N 37°01' E 002°52'1111.1
2015-Jul-19 20:33N 36°53' E 003°01'8 1.4
2015-Jul-19 15:09N 36°46' E 003°04'0 0.0
2015-Jul-19 14:24N 36°46' E 003°04'0 0.0
2015-Jul-19 13:17N 36°46' E 003°04'0 0.0
2015-Jul-19 12:29N 36°46' E 003°04'0 0.0
2015-Jul-19 11:29N 36°46' E 003°04'0 0.0
2015-Jul-19 10:28N 36°46' E 003°04'0 0.0
2015-Jul-19 09:19N 36°46' E 003°04'0 0.0
2015-Jul-19 08:18N 36°46' E 003°04'0 0.0
2015-Jul-19 07:33N 36°46' E 003°04'  

Dump ship's entire track history